createdAt,value
2023-03-14T03:59:00.633Z,2.07
2023-03-14T04:15:01.141Z,1.93
2023-03-14T04:18:00.638Z,1.68
2023-03-14T04:19:00.697Z,1.63
2023-03-14T04:20:00.754Z,1.78
2023-03-14T04:21:00.828Z,1.80
2023-03-14T04:22:00.896Z,1.77
2023-03-14T04:23:00.930Z,1.55
2023-03-14T04:24:00.985Z,1.84
2023-03-14T04:25:01.045Z,1.64
2023-03-14T04:26:01.077Z,1.62
2023-03-14T04:27:01.124Z,1.86
2023-03-14T04:28:02.140Z,2.24
2023-03-14T04:29:01.220Z,1.58
2023-03-14T04:30:01.263Z,1.61
2023-03-14T04:31:01.318Z,1.65
2023-03-14T04:32:01.350Z,1.72
2023-03-14T04:33:01.413Z,1.88
2023-03-14T04:34:01.447Z,1.57
2023-03-14T04:35:01.514Z,1.78
2023-03-14T04:36:01.562Z,1.51
2023-03-14T04:37:01.584Z,1.60
2023-03-14T04:38:01.629Z,2.02
2023-03-14T04:39:01.691Z,1.75
2023-03-14T04:40:01.764Z,2.27
2023-03-14T04:41:01.753Z,1.76
2023-03-14T04:42:01.806Z,1.50
2023-03-14T04:43:01.855Z,1.64
2023-03-14T04:44:01.887Z,1.91
2023-03-14T04:45:01.937Z,1.87
2023-03-14T04:46:01.962Z,1.77
2023-03-14T04:47:02.037Z,1.92
2023-03-14T04:48:02.030Z,1.73
2023-03-14T04:49:02.057Z,2.03
2023-03-14T04:50:02.098Z,1.86
2023-03-14T04:51:02.158Z,1.83
2023-03-14T04:52:02.169Z,1.69
2023-03-14T04:53:02.209Z,1.86
2023-03-14T04:54:02.327Z,1.73
2023-03-14T04:55:02.261Z,1.70
2023-03-14T04:56:02.312Z,1.78
2023-03-14T04:57:02.330Z,1.95
2023-03-14T04:58:02.375Z,2.35
2023-03-14T04:59:02.403Z,1.83
2023-03-14T05:00:02.660Z,1.89
2023-03-14T05:01:02.445Z,1.51
2023-03-14T05:02:02.549Z,1.89
2023-03-14T05:03:02.579Z,1.52
2023-03-14T05:04:02.541Z,1.81
2023-03-14T05:05:02.579Z,1.80
2023-03-14T05:06:03.152Z,1.61
2023-03-14T05:07:02.710Z,1.97
2023-03-14T05:08:02.665Z,1.44
2023-03-14T05:09:02.687Z,1.76
2023-03-14T05:10:02.699Z,1.49
2023-03-14T05:11:02.725Z,1.77
2023-03-14T05:12:02.811Z,1.50
2023-03-14T05:13:02.785Z,1.90
2023-03-14T05:14:02.808Z,1.54
2023-03-14T05:15:02.832Z,1.75
2023-03-14T05:16:02.908Z,1.94
2023-03-14T05:17:02.892Z,1.66
2023-03-14T05:18:02.911Z,1.54
2023-03-14T05:19:02.936Z,1.76
2023-03-14T05:20:02.963Z,1.80
2023-03-14T05:21:02.993Z,1.76
2023-03-14T05:22:03.021Z,1.43
2023-03-14T05:23:03.052Z,1.70
2023-03-14T05:24:03.066Z,1.57
2023-03-14T05:25:03.099Z,1.58
2023-03-14T05:26:03.127Z,2.00
2023-03-14T05:27:03.150Z,1.67
2023-03-14T05:28:03.198Z,1.67
2023-03-14T05:29:03.206Z,1.64
2023-03-14T05:30:03.232Z,1.95
2023-03-14T05:31:03.259Z,1.93
2023-03-14T05:32:03.284Z,1.69
2023-03-14T05:33:03.316Z,2.05
2023-03-14T05:34:03.343Z,1.50
2023-03-14T05:35:03.378Z,2.21
2023-03-14T05:36:03.445Z,2.00
2023-03-14T05:37:03.414Z,1.81
2023-03-14T05:38:03.466Z,2.06
2023-03-14T05:39:03.472Z,1.69
2023-03-14T05:40:03.527Z,1.94
2023-03-14T05:41:03.540Z,1.81
2023-03-14T05:42:03.564Z,1.67
2023-03-14T05:43:03.596Z,1.92
2023-03-14T05:44:03.638Z,1.41
2023-03-14T05:55:03.937Z,1.50
2023-03-14T06:03:06.645Z,1.55
2023-03-14T12:17:11.319Z,1.00
2023-03-14T12:36:10.653Z,2.10
2023-03-14T12:37:10.672Z,1.95
2023-03-14T12:38:10.680Z,1.60
2023-03-14T12:39:10.698Z,1.38
2023-03-14T12:40:10.736Z,1.65
2023-03-14T12:41:10.809Z,1.64
2023-03-14T12:42:10.761Z,1.58
2023-03-14T12:43:10.775Z,1.25
2023-03-14T12:44:10.795Z,1.73
2023-03-14T12:45:10.804Z,1.36
2023-03-14T12:46:10.916Z,1.61
2023-03-14T12:47:10.851Z,1.40
2023-03-14T12:48:10.898Z,1.33
2023-03-14T12:49:10.894Z,1.38
2023-03-14T12:50:10.960Z,1.50
2023-03-14T12:51:10.948Z,1.43
2023-03-14T12:52:10.968Z,1.61
2023-03-14T12:53:10.983Z,2.11
2023-03-14T12:54:11.015Z,1.35
2023-03-14T12:55:11.035Z,1.42
2023-03-14T12:56:11.059Z,1.61
2023-03-14T12:57:11.095Z,1.64
2023-03-14T12:58:11.751Z,1.53
2023-03-14T12:59:11.148Z,1.56
2023-03-14T13:00:11.182Z,1.52
2023-03-14T13:02:11.238Z,1.53
2023-03-14T13:03:11.273Z,1.04
2023-03-14T13:36:12.509Z,1.41
2023-03-14T13:58:13.376Z,1.22
2023-03-14T14:01:13.429Z,1.48
2023-03-14T14:07:13.634Z,1.29
2023-03-14T14:10:13.747Z,1.15
2023-03-14T14:11:13.769Z,1.18
2023-03-14T14:12:16.650Z,1.19
2023-03-14T14:13:13.792Z,1.26
2023-03-14T14:14:13.794Z,1.02
2023-03-14T14:15:13.797Z,1.43
2023-03-14T14:16:13.828Z,1.29
2023-03-14T14:17:13.773Z,1.29
2023-03-14T14:18:13.758Z,1.36
2023-03-14T14:19:13.755Z,1.20
2023-03-14T14:20:13.747Z,0.98
2023-03-14T14:21:13.749Z,1.44
2023-03-14T14:22:13.745Z,1.11
2023-03-14T14:23:13.734Z,1.18
2023-03-14T14:24:13.717Z,1.12
2023-03-14T14:25:13.714Z,1.35
2023-03-14T14:26:13.723Z,1.47
2023-03-14T14:27:13.697Z,1.69
2023-03-14T14:28:13.690Z,1.40
2023-03-14T14:29:13.684Z,1.19
2023-03-14T14:30:13.684Z,1.35
2023-03-14T14:31:13.748Z,1.15
2023-03-14T14:32:13.749Z,1.38
2023-03-14T14:33:13.673Z,1.03
2023-03-14T14:34:13.725Z,1.31
2023-03-14T14:35:13.656Z,1.16
2023-03-14T14:36:13.671Z,1.09
2023-03-14T14:37:13.647Z,0.99
2023-03-14T14:38:13.642Z,1.21
2023-03-14T14:39:13.631Z,1.35
2023-03-14T14:40:14.372Z,1.00
2023-03-14T14:41:13.624Z,1.21
2023-03-14T14:42:13.610Z,1.10
2023-03-14T14:43:13.600Z,1.26
2023-03-14T14:44:13.612Z,1.06
2023-03-14T14:45:13.588Z,1.11
2023-03-14T14:46:13.632Z,1.28
2023-03-14T14:47:13.600Z,1.09
2023-03-14T14:48:13.650Z,1.23
2023-03-14T14:49:14.490Z,0.94
2023-03-14T14:50:13.560Z,1.63
2023-03-14T14:51:13.553Z,1.03
2023-03-14T14:52:13.562Z,0.88
2023-03-14T14:53:13.542Z,1.39
2023-03-14T14:54:13.536Z,1.17
2023-03-14T14:55:13.528Z,1.31
2023-03-14T14:56:13.507Z,1.21
2023-03-14T14:57:13.501Z,1.17
2023-03-14T14:58:14.386Z,1.36
2023-03-14T14:59:13.497Z,0.84
2023-03-14T15:00:13.507Z,1.15
2023-03-14T15:01:14.388Z,1.19
2023-03-14T15:02:13.501Z,1.15
2023-03-14T15:03:13.503Z,1.07
2023-03-14T15:04:13.498Z,0.89
2023-03-14T15:05:13.458Z,1.08
2023-03-14T15:06:13.447Z,1.14
2023-03-14T15:07:13.433Z,1.13
2023-03-14T15:08:13.444Z,1.19
2023-03-14T15:09:13.433Z,1.06
2023-03-14T15:10:13.444Z,1.16
2023-03-14T15:11:13.463Z,1.19
2023-03-14T15:12:14.394Z,1.09
2023-03-14T15:13:14.703Z,1.13
2023-03-14T15:14:13.396Z,0.98
2023-03-14T15:15:13.450Z,1.04
2023-03-14T15:16:13.521Z,1.17
2023-03-14T15:17:13.490Z,1.18
2023-03-14T15:18:13.614Z,1.13
2023-03-14T15:19:24.044Z,0.94
2023-03-14T15:20:14.585Z,1.44
2023-03-14T15:21:13.572Z,1.01
2023-03-14T15:22:13.582Z,1.24
2023-03-14T15:23:13.568Z,1.41
2023-03-14T15:24:15.832Z,1.72
2023-03-14T15:25:37.016Z,1.05
2023-03-14T15:26:14.574Z,0.84
2023-03-14T15:27:13.532Z,0.91
2023-03-14T15:28:13.532Z,1.26
2023-03-14T15:29:13.593Z,0.96
2023-03-14T15:30:13.514Z,1.05
2023-03-14T15:31:13.962Z,1.14
2023-03-14T15:32:13.507Z,1.09
2023-03-14T15:33:13.495Z,1.04
2023-03-14T15:34:13.497Z,1.33
2023-03-14T15:35:15.038Z,1.32
2023-03-14T15:36:13.745Z,1.02
2023-03-14T15:37:13.746Z,1.46
2023-03-14T15:38:14.400Z,1.25
2023-03-14T15:39:13.839Z,1.19
2023-03-14T15:40:13.897Z,1.04
2023-03-14T15:41:13.963Z,1.47
2023-03-14T15:42:14.009Z,1.13
2023-03-14T15:43:14.074Z,1.05
2023-03-14T15:44:14.125Z,0.90
2023-03-14T15:45:14.187Z,1.30
2023-03-14T15:46:14.290Z,1.29
2023-03-14T15:47:14.322Z,0.92
2023-03-14T15:48:14.903Z,1.00
2023-03-14T15:49:14.407Z,0.94
2023-03-14T15:50:14.468Z,1.10
2023-03-14T15:51:14.533Z,1.06
2023-03-14T15:52:14.577Z,0.98
2023-03-14T15:53:14.643Z,1.20
2023-03-14T15:54:14.701Z,0.81
2023-03-14T15:55:14.764Z,0.85
2023-03-14T15:56:14.815Z,0.82
2023-03-14T15:57:14.867Z,1.17
2023-03-14T15:58:14.952Z,0.90
2023-03-14T15:59:15.007Z,1.06
2023-03-14T16:00:15.068Z,1.07
2023-03-14T16:01:15.149Z,0.73
2023-03-14T16:02:15.173Z,1.12
2023-03-14T16:03:15.292Z,1.27
2023-03-14T16:04:15.343Z,1.25
2023-03-14T16:05:15.363Z,1.15
2023-03-14T16:06:15.508Z,0.82
2023-03-14T16:07:15.458Z,0.99
2023-03-14T16:08:15.523Z,0.94
2023-03-14T16:09:15.584Z,1.09
2023-03-14T16:10:15.631Z,0.92
2023-03-14T16:11:15.678Z,0.87
2023-03-14T16:12:15.702Z,1.42
2023-03-14T16:13:15.760Z,0.88
2023-03-14T16:14:15.772Z,1.09
2023-03-14T16:15:15.850Z,1.28
2023-03-14T16:16:15.857Z,1.23
2023-03-14T16:17:15.875Z,1.03
2023-03-14T16:18:21.951Z,1.29
2023-03-14T16:19:16.896Z,1.10
2023-03-14T16:20:15.892Z,1.01
2023-03-14T16:21:15.893Z,0.91
2023-03-14T16:22:15.893Z,1.13
2023-03-14T16:23:15.865Z,0.79
2023-03-14T16:24:15.862Z,1.18
2023-03-14T16:25:15.844Z,1.29
2023-03-14T16:26:15.840Z,1.10
2023-03-14T16:27:15.835Z,1.21
2023-03-14T16:28:15.830Z,1.19
2023-03-14T16:29:15.823Z,0.99
2023-03-14T16:30:15.826Z,1.19
2023-03-14T16:31:15.846Z,1.01
2023-03-14T16:32:15.959Z,1.20
2023-03-14T16:33:16.047Z,0.80
2023-03-14T16:34:15.793Z,0.94
2023-03-14T16:35:15.781Z,0.92
2023-03-14T16:36:15.895Z,0.76
2023-03-14T16:37:15.767Z,1.09
2023-03-14T16:38:15.771Z,0.80
2023-03-14T16:39:15.797Z,0.99
2023-03-14T16:40:15.795Z,1.30
2023-03-14T16:41:15.791Z,0.91
2023-03-14T16:42:15.814Z,0.94
2023-03-14T16:43:16.524Z,1.00
2023-03-14T16:44:15.927Z,0.81
2023-03-14T16:45:15.942Z,0.93
2023-03-14T16:46:15.986Z,1.00
2023-03-14T16:47:15.986Z,0.87
2023-03-14T16:48:15.973Z,0.91
2023-03-14T16:49:15.995Z,1.03
2023-03-14T16:50:16.003Z,1.04
2023-03-14T16:51:16.011Z,0.94
2023-03-14T16:52:16.017Z,0.72
2023-03-14T16:53:16.051Z,1.09
2023-03-14T16:54:16.070Z,1.07
2023-03-14T16:55:16.104Z,1.08
2023-03-14T16:56:16.133Z,0.79
2023-03-14T16:57:16.176Z,0.96
2023-03-14T16:58:16.109Z,1.06
2023-03-14T16:59:16.159Z,0.90
2023-03-14T17:00:16.145Z,0.97
2023-03-14T17:01:16.268Z,1.49
2023-03-14T17:02:16.178Z,0.92
2023-03-14T17:03:16.181Z,0.80
2023-03-14T17:05:16.313Z,0.94
2023-03-14T17:06:16.304Z,0.68
2023-03-14T17:07:16.312Z,1.14
2023-03-14T17:08:16.936Z,0.86
2023-03-14T17:09:16.931Z,1.02
2023-03-14T17:10:16.348Z,0.97
2023-03-14T17:11:16.357Z,0.93
2023-03-14T17:12:16.407Z,0.99
2023-03-14T17:13:16.389Z,0.85
2023-03-14T20:59:21.610Z,1.09
2023-03-14T21:00:20.624Z,0.94
2023-03-14T21:01:20.709Z,1.15
2023-03-14T21:02:20.695Z,1.11
2023-03-14T21:03:20.734Z,1.17
2023-03-14T21:04:20.810Z,0.80
2023-03-14T21:05:20.863Z,1.02
2023-03-14T21:06:21.049Z,1.04
2023-03-14T21:07:20.891Z,1.11
2023-03-14T21:08:20.951Z,0.97
2023-03-14T21:09:20.969Z,0.87
2023-03-14T21:10:21.033Z,1.09
2023-03-14T21:11:21.063Z,0.83
2023-03-14T21:12:21.101Z,1.06
2023-03-14T21:16:21.334Z,0.85
2023-03-14T21:17:21.333Z,0.92
2023-03-14T21:18:21.352Z,1.06
2023-03-14T21:19:21.401Z,0.95
2023-03-14T21:20:21.448Z,0.88
2023-03-14T21:21:21.485Z,1.02
2023-03-14T21:22:21.537Z,0.96
2023-03-14T21:23:21.578Z,1.19
2023-03-14T21:24:21.676Z,1.39
2023-03-14T21:25:21.664Z,1.12
2023-03-14T21:26:21.708Z,0.87
2023-03-14T21:27:21.751Z,0.92
2023-03-14T21:28:21.804Z,0.87
2023-03-14T21:29:21.875Z,0.98
2023-03-14T21:30:21.892Z,0.97
2023-03-14T21:31:21.941Z,1.03
2023-03-14T21:32:22.035Z,0.96
2023-03-14T21:33:22.043Z,0.82
2023-03-14T21:34:22.076Z,0.93
2023-03-14T21:35:22.124Z,1.01
2023-03-14T21:36:22.161Z,0.97
2023-03-14T21:37:22.204Z,0.92
2023-03-14T21:38:22.278Z,0.90
2023-03-14T21:39:22.297Z,0.92
2023-03-14T21:40:22.365Z,1.02
2023-03-14T21:41:22.387Z,0.91
2023-03-14T21:42:22.436Z,0.70
2023-03-14T21:43:22.500Z,0.84
2023-03-14T21:44:22.508Z,1.15
2023-03-14T21:45:22.605Z,0.68
2023-03-14T21:46:22.646Z,1.03
2023-03-14T21:47:22.636Z,1.00
2023-03-14T21:48:23.539Z,1.22
2023-03-14T21:49:22.725Z,0.66
2023-03-14T21:50:22.771Z,0.81
2023-03-14T21:51:22.812Z,1.04
2023-03-14T21:52:22.864Z,0.76
2023-03-14T21:53:23.543Z,1.08
2023-03-14T21:54:22.955Z,0.95
2023-03-14T21:55:23.006Z,0.88
2023-03-14T21:56:23.048Z,1.03
2023-03-14T21:57:23.086Z,0.92
2023-03-14T21:58:23.143Z,0.97
2023-03-14T21:59:23.284Z,0.99
2023-03-14T22:00:23.264Z,0.77
2023-03-14T22:01:23.307Z,0.92
2023-03-14T22:02:23.439Z,0.99
2023-03-14T22:03:23.484Z,0.72
2023-03-14T22:04:23.418Z,1.28
2023-03-14T22:05:23.458Z,1.13
2023-03-14T22:06:23.499Z,1.14
2023-03-14T22:07:23.610Z,0.81
2023-03-14T22:08:23.645Z,0.99
2023-03-14T22:09:23.651Z,0.83
2023-03-14T22:10:23.697Z,0.93
2023-03-14T22:11:23.743Z,0.95
2023-03-14T22:12:23.804Z,0.91
2023-03-14T22:13:23.818Z,1.22
2023-03-14T22:14:23.867Z,0.77
2023-03-14T22:15:23.908Z,0.90
2023-03-14T22:16:23.982Z,0.91
2023-03-14T22:17:24.001Z,1.18
2023-03-14T22:18:24.053Z,0.84
2023-03-14T22:19:24.095Z,0.98
2023-03-14T22:20:24.161Z,0.99
2023-03-14T22:21:24.202Z,0.89
2023-03-14T22:22:24.253Z,0.90
2023-03-14T22:23:24.305Z,0.77
2023-03-14T22:24:24.358Z,0.92
2023-03-14T22:25:24.413Z,0.90
2023-03-14T22:26:24.454Z,0.84
2023-03-14T22:27:24.573Z,0.67
2023-03-14T22:28:24.604Z,0.99
2023-03-14T22:29:24.593Z,0.95
2023-03-14T22:30:24.645Z,0.82
2023-03-14T22:31:24.738Z,0.87
2023-03-14T22:32:24.777Z,0.93
2023-03-14T22:33:24.809Z,0.79
2023-03-14T22:34:24.952Z,1.06
2023-03-14T22:35:24.887Z,0.77
2023-03-14T22:36:24.961Z,0.94
2023-03-14T22:37:24.996Z,0.87
2023-03-14T22:38:25.045Z,0.95
2023-03-14T22:39:25.103Z,0.93
2023-03-14T22:40:25.151Z,1.04
2023-03-14T22:41:25.198Z,1.04
2023-03-14T22:42:25.246Z,0.98
2023-03-14T22:43:25.299Z,0.96
2023-03-14T22:44:25.347Z,0.99
2023-03-14T22:45:25.427Z,1.58
2023-03-14T22:46:25.446Z,0.93
2023-03-14T22:47:25.483Z,0.98
2023-03-14T22:48:25.534Z,1.05
2023-03-14T22:49:25.586Z,0.91
2023-03-14T22:50:25.644Z,0.61
2023-03-14T22:51:25.689Z,0.98
2023-03-14T22:52:25.801Z,1.04
2023-03-14T22:53:25.782Z,0.77
2023-03-14T22:54:25.861Z,0.79
2023-03-14T22:55:25.906Z,0.64
2023-03-14T22:56:25.943Z,0.95
2023-03-14T22:57:25.989Z,0.85
2023-03-14T22:58:26.175Z,1.09
2023-03-14T22:59:26.219Z,0.72
2023-03-14T23:00:26.143Z,0.78
2023-03-14T23:01:26.316Z,0.79
2023-03-14T23:02:26.248Z,0.80
2023-03-14T23:03:26.366Z,0.97
2023-03-14T23:04:26.357Z,0.88
2023-03-14T23:05:26.399Z,0.86
2023-03-14T23:06:26.440Z,0.71
2023-03-14T23:07:26.490Z,0.69
2023-03-14T23:08:26.616Z,0.70
2023-03-14T23:09:27.565Z,1.04
2023-03-14T23:10:26.646Z,0.84
2023-03-14T23:11:27.585Z,0.96
2023-03-14T23:12:26.741Z,0.67
2023-03-14T23:13:26.826Z,0.98
2023-03-14T23:14:26.872Z,0.76
2023-03-14T23:15:26.919Z,1.08
2023-03-14T23:16:34.012Z,0.78
2023-03-14T23:17:27.963Z,0.71
2023-03-14T23:18:26.962Z,0.75
2023-03-14T23:19:26.958Z,0.76
2023-03-14T23:20:26.961Z,0.73
2023-03-14T23:21:27.469Z,0.78
2023-03-14T23:22:26.933Z,0.70
2023-03-14T23:23:26.995Z,0.77
2023-03-14T23:24:26.936Z,0.99
2023-03-14T23:25:27.872Z,1.19
2023-03-14T23:26:26.931Z,0.75
2023-03-14T23:27:27.025Z,0.66
2023-03-14T23:28:27.023Z,1.03
2023-03-14T23:29:27.184Z,0.79
2023-03-14T23:30:27.177Z,1.34
2023-03-14T23:31:27.233Z,0.99
2023-03-14T23:32:27.230Z,0.87
2023-03-14T23:33:27.267Z,0.75
2023-03-14T23:34:27.304Z,0.90
2023-03-14T23:35:27.362Z,0.82
2023-03-14T23:36:27.409Z,0.64
2023-03-14T23:37:27.459Z,0.94
2023-03-14T23:38:27.510Z,0.69
2023-03-14T23:39:27.561Z,1.04
2023-03-14T23:40:27.631Z,0.70
2023-03-14T23:41:27.677Z,0.78
2023-03-14T23:42:27.736Z,1.17
2023-03-14T23:43:27.809Z,0.70
2023-03-14T23:44:27.840Z,1.07
2023-03-14T23:45:27.892Z,0.79
2023-03-14T23:46:27.976Z,0.84
2023-03-14T23:47:28.091Z,1.22
2023-03-14T23:48:28.055Z,0.71
2023-03-14T23:49:28.111Z,0.84
2023-03-14T23:50:28.164Z,0.82
2023-03-14T23:51:28.220Z,1.06
2023-03-14T23:52:28.250Z,0.98
2023-03-14T23:53:28.303Z,1.14
2023-03-14T23:54:28.351Z,0.86
2023-03-14T23:55:28.403Z,0.69
2023-03-14T23:56:28.450Z,1.00
2023-03-14T23:57:28.500Z,0.95
2023-03-14T23:58:28.541Z,0.94
2023-03-14T23:59:28.594Z,0.68
